createdAt,value
2018-03-22T00:00:36.383Z,81.00
2018-03-22T00:03:02.650Z,81.00
2018-03-22T00:05:29.752Z,81.10
2018-03-22T00:07:56.469Z,81.10
2018-03-22T00:10:22.819Z,81.30
2018-03-22T00:12:49.817Z,81.70
2018-03-22T00:15:16.637Z,81.80
2018-03-22T00:17:42.898Z,81.00
2018-03-22T00:20:09.158Z,81.90
2018-03-22T00:22:37.719Z,80.20
2018-03-22T00:25:04.002Z,81.20
2018-03-22T00:27:31.018Z,81.50
2018-03-22T00:29:58.020Z,81.40
2018-03-22T00:32:24.778Z,81.30
2018-03-22T00:34:51.598Z,81.90
2018-03-22T00:37:19.162Z,81.50
2018-03-22T00:39:46.148Z,82.00
2018-03-22T00:42:12.969Z,82.10
2018-03-22T00:44:40.425Z,82.50
2018-03-22T00:47:07.895Z,80.60
2018-03-22T00:49:35.614Z,81.10
2018-03-22T00:52:02.323Z,81.00
2018-03-22T00:54:28.638Z,81.40
2018-03-22T00:56:55.620Z,81.70
2018-03-22T00:59:21.889Z,81.70
2018-03-22T01:01:48.169Z,81.40
2018-03-22T01:04:15.254Z,81.50
2018-03-22T01:06:42.040Z,81.50
2018-03-22T01:09:08.305Z,81.40
2018-03-22T01:11:35.847Z,80.60
2018-03-22T01:14:02.111Z,80.60
2018-03-22T01:16:28.438Z,81.20
2018-03-22T01:18:55.682Z,81.60
2018-03-22T01:21:23.097Z,81.40
2018-03-22T01:23:49.346Z,80.80
2018-03-22T01:26:16.233Z,81.30
2018-03-22T01:28:43.806Z,80.40
2018-03-22T01:31:11.510Z,80.60
2018-03-22T01:33:37.763Z,80.60
2018-03-22T01:36:04.018Z,81.00
2018-03-22T01:38:30.776Z,81.10
2018-03-22T01:40:58.549Z,80.30
2018-03-22T01:43:25.892Z,80.50
2018-03-22T01:45:52.145Z,80.40
2018-03-22T01:48:19.800Z,80.10
2018-03-22T01:50:46.458Z,80.10
2018-03-22T01:53:13.832Z,80.30
2018-03-22T01:55:40.112Z,80.30
2018-03-22T01:58:06.415Z,80.70
2018-03-22T02:00:33.022Z,78.50
2018-03-22T02:03:00.038Z,80.80
2018-03-22T02:05:26.931Z,80.80
2018-03-22T02:07:54.358Z,79.90
2018-03-22T02:10:21.458Z,79.80
2018-03-22T02:12:47.698Z,81.50
2018-03-22T02:15:13.992Z,80.40
2018-03-22T02:17:41.022Z,80.60
2018-03-22T02:20:07.266Z,80.60
2018-03-22T02:22:34.142Z,80.80
2018-03-22T02:25:01.602Z,81.00
2018-03-22T02:27:28.641Z,81.60
2018-03-22T02:29:54.882Z,81.40
2018-03-22T02:32:21.635Z,81.40
2018-03-22T02:34:48.637Z,79.30
2018-03-22T02:37:15.415Z,79.30
2018-03-22T02:39:42.029Z,80.90
2018-03-22T02:42:08.790Z,80.30
2018-03-22T02:44:35.058Z,81.50
2018-03-22T02:47:02.728Z,81.20
2018-03-22T02:49:30.246Z,81.20
2018-03-22T02:51:56.942Z,81.00
2018-03-22T02:54:24.362Z,79.20
2018-03-22T02:56:50.622Z,79.20
2018-03-22T02:59:16.870Z,80.30
2018-03-22T03:01:44.226Z,80.40
2018-03-22T03:04:11.215Z,80.30
2018-03-22T03:06:38.072Z,80.30
2018-03-22T03:09:04.857Z,79.90
2018-03-22T03:11:31.146Z,79.70
2018-03-22T03:13:57.407Z,79.80
2018-03-22T03:16:23.691Z,79.50
2018-03-22T03:18:50.672Z,79.40
2018-03-22T03:21:17.462Z,79.40
2018-03-22T03:23:43.708Z,79.10
2018-03-22T03:26:10.706Z,79.20
2018-03-22T03:28:37.308Z,79.20
2018-03-22T03:31:04.935Z,79.00
2018-03-22T03:33:31.188Z,78.90
2018-03-22T03:35:57.426Z,79.50
2018-03-22T03:38:24.187Z,79.30
2018-03-22T03:40:51.184Z,79.50
2018-03-22T03:43:17.982Z,79.50
2018-03-22T03:45:44.969Z,78.80
2018-03-22T03:48:11.666Z,78.80
2018-03-22T03:50:38.014Z,78.60
2018-03-22T03:53:05.792Z,78.00
2018-03-22T03:55:33.358Z,77.80
2018-03-22T03:58:00.334Z,77.70
2018-03-22T04:00:26.922Z,77.70
2018-03-22T04:02:53.195Z,78.00
2018-03-22T04:05:19.977Z,77.70
2018-03-22T04:07:46.219Z,77.60
2018-03-22T04:10:12.494Z,78.00
2018-03-22T04:12:39.854Z,78.00
2018-03-22T04:15:06.854Z,77.80
2018-03-22T04:17:33.206Z,77.80
2018-03-22T04:20:00.200Z,77.60
2018-03-22T04:22:27.638Z,77.40
2018-03-22T04:24:53.905Z,77.40
2018-03-22T04:27:20.153Z,77.20
2018-03-22T04:29:46.422Z,77.30
2018-03-22T04:32:13.065Z,77.20
2018-03-22T04:34:40.678Z,77.40
2018-03-22T04:37:08.238Z,77.40
2018-03-22T04:39:35.224Z,77.50
2018-03-22T04:42:01.467Z,77.50
2018-03-22T04:44:28.586Z,77.40
2018-03-22T04:46:55.632Z,76.90
2018-03-22T04:49:23.454Z,78.10
2018-03-22T04:51:50.113Z,78.10
2018-03-22T04:54:16.998Z,77.90
2018-03-22T04:56:44.041Z,78.50
2018-03-22T04:59:11.022Z,78.30
2018-03-22T05:01:37.654Z,78.20
2018-03-22T05:04:04.489Z,78.00
2018-03-22T05:06:32.054Z,77.70
2018-03-22T05:08:59.041Z,77.40
2018-03-22T05:11:25.314Z,77.40
2018-03-22T05:13:51.879Z,77.70
2018-03-22T05:16:19.327Z,77.60
2018-03-22T05:18:46.257Z,77.60
2018-03-22T05:21:13.975Z,77.30
2018-03-22T05:23:40.224Z,77.00
2018-03-22T05:26:06.478Z,77.70
2018-03-22T05:28:33.925Z,79.60
2018-03-22T05:31:00.844Z,85.50
2018-03-22T05:33:28.514Z,81.50
2018-03-22T05:35:55.502Z,78.70
2018-03-22T05:38:22.510Z,78.70
2018-03-22T05:40:50.126Z,77.50
2018-03-22T05:43:16.935Z,77.50
2018-03-22T05:45:44.590Z,76.60
2018-03-22T05:48:12.158Z,76.40
2018-03-22T05:50:39.171Z,76.40
2018-03-22T05:53:06.329Z,76.40
2018-03-22T05:55:32.585Z,76.80
2018-03-22T05:57:59.593Z,75.70
2018-03-22T06:00:26.393Z,75.70
2018-03-22T06:02:53.393Z,75.50
2018-03-22T06:05:20.150Z,75.50
2018-03-22T06:07:46.399Z,75.50
2018-03-22T06:10:12.662Z,74.50
2018-03-22T06:12:40.028Z,74.60
2018-03-22T06:15:07.490Z,74.80
2018-03-22T06:17:34.497Z,74.10
2018-03-22T06:20:00.748Z,74.10
2018-03-22T06:22:27.622Z,74.10
2018-03-22T06:24:54.631Z,73.80
2018-03-22T06:27:20.893Z,73.80
2018-03-22T06:29:47.601Z,73.40
2018-03-22T06:32:14.445Z,73.00
2018-03-22T06:34:40.725Z,73.10
2018-03-22T06:37:08.297Z,72.00
2018-03-22T06:39:35.657Z,72.40
2018-03-22T06:42:02.676Z,72.90
2018-03-22T06:44:29.355Z,72.80
2018-03-22T06:46:56.786Z,71.90
2018-03-22T06:49:23.032Z,71.90
2018-03-22T06:51:49.897Z,70.90
2018-03-22T06:54:17.446Z,71.30
2018-03-22T06:56:43.702Z,71.20
2018-03-22T06:59:11.138Z,70.90
2018-03-22T07:01:37.391Z,70.90
2018-03-22T07:04:04.385Z,70.40
2018-03-22T07:06:31.201Z,70.20
2018-03-22T07:08:58.185Z,69.70
2018-03-22T07:11:24.881Z,69.60
2018-03-22T07:13:51.868Z,69.70
2018-03-22T07:16:18.127Z,69.70
2018-03-22T07:18:44.718Z,69.00
2018-03-22T07:21:11.710Z,68.50
2018-03-22T07:23:37.969Z,68.50
2018-03-22T07:26:04.493Z,69.00
2018-03-22T07:28:31.590Z,68.70
2018-03-22T07:30:59.265Z,67.40
2018-03-22T07:33:26.249Z,67.40
2018-03-22T07:35:53.063Z,67.40
2018-03-22T07:38:20.422Z,66.40
2018-03-22T07:40:47.389Z,67.00
2018-03-22T07:43:20.777Z,67.00
2018-03-22T07:45:47.769Z,65.30
2018-03-22T07:48:14.040Z,65.20
2018-03-22T07:50:40.842Z,65.50
2018-03-22T07:53:07.752Z,65.80
2018-03-22T07:55:35.193Z,64.70
2018-03-22T07:58:01.486Z,64.70
2018-03-22T08:00:27.776Z,65.30
2018-03-22T08:02:59.721Z,64.30
2018-03-22T08:05:26.585Z,64.40
2018-03-22T08:07:52.862Z,62.50
2018-03-22T08:10:19.678Z,60.80
2018-03-22T08:12:46.742Z,62.50
2018-03-22T08:15:13.753Z,61.90
2018-03-22T08:17:40.265Z,62.00
2018-03-22T08:20:07.641Z,62.30
2018-03-22T08:22:33.887Z,63.20
2018-03-22T08:25:00.673Z,62.90
2018-03-22T08:27:28.474Z,61.90
2018-03-22T08:29:54.727Z,61.70
2018-03-22T08:32:21.625Z,61.60
2018-03-22T08:34:49.282Z,61.20
2018-03-22T08:37:16.854Z,60.90
2018-03-22T08:39:43.855Z,60.00
2018-03-22T08:42:10.105Z,59.90
2018-03-22T08:44:36.894Z,58.70
2018-03-22T08:47:03.897Z,58.80
2018-03-22T08:49:30.191Z,59.10
2018-03-22T08:51:57.259Z,57.30
2018-03-22T08:54:23.968Z,58.50
2018-03-22T08:56:51.013Z,58.10
2018-03-22T08:59:17.278Z,58.00
2018-03-22T09:01:43.898Z,57.40
2018-03-22T09:04:10.894Z,59.70
2018-03-22T09:06:37.494Z,59.70
2018-03-22T09:09:04.514Z,54.80
2018-03-22T09:11:30.769Z,54.90
2018-03-22T09:13:57.038Z,56.20
2018-03-22T09:16:23.286Z,56.30
2018-03-22T09:18:49.709Z,58.10
2018-03-22T09:21:15.977Z,57.00
2018-03-22T09:23:42.674Z,56.20
2018-03-22T09:26:10.238Z,52.20
2018-03-22T09:28:37.237Z,54.80
2018-03-22T09:31:04.033Z,54.80
2018-03-22T09:33:31.041Z,55.80
2018-03-22T09:35:57.300Z,55.80
2018-03-22T09:38:24.799Z,52.40
2018-03-22T09:40:51.118Z,52.30
2018-03-22T09:43:18.687Z,54.70
2018-03-22T09:45:45.700Z,51.10
2018-03-22T09:48:11.975Z,50.90
2018-03-22T09:50:38.769Z,51.70
2018-03-22T09:53:05.467Z,52.30
2018-03-22T09:55:32.460Z,49.00
2018-03-22T09:57:58.714Z,49.00
2018-03-22T10:00:25.286Z,51.70
2018-03-22T10:02:52.370Z,49.00
2018-03-22T10:05:19.070Z,48.90
2018-03-22T10:07:45.340Z,52.40
2018-03-22T10:10:11.615Z,52.00
2018-03-22T10:12:38.210Z,49.30
2018-03-22T10:15:05.217Z,47.90
2018-03-22T10:17:31.561Z,47.90
2018-03-22T10:19:58.742Z,45.70
2018-03-22T10:22:26.118Z,47.50
2018-03-22T10:24:52.441Z,47.60
2018-03-22T10:27:19.434Z,45.10
2018-03-22T10:29:46.197Z,45.00
2018-03-22T10:32:12.991Z,44.90
2018-03-22T10:34:39.981Z,46.10
2018-03-22T10:37:06.902Z,46.00
2018-03-22T10:39:33.155Z,46.10
2018-03-22T10:41:59.462Z,40.40
2018-03-22T10:44:26.118Z,43.80
2018-03-22T10:46:52.430Z,45.70
2018-03-22T10:49:19.758Z,46.70
2018-03-22T10:51:46.444Z,46.10
2018-03-22T10:54:13.430Z,45.40
2018-03-22T10:56:39.714Z,45.20
2018-03-22T10:59:06.276Z,45.90
2018-03-22T11:01:40.800Z,44.50
2018-03-22T11:04:07.815Z,43.40
2018-03-22T11:06:35.502Z,42.90
2018-03-22T11:09:01.916Z,42.90
2018-03-22T11:11:28.181Z,43.10
2018-03-22T11:13:55.546Z,41.20
2018-03-22T11:16:22.534Z,38.90
2018-03-22T11:18:49.646Z,38.70
2018-03-22T11:21:16.654Z,41.40
2018-03-22T11:23:42.907Z,41.50
2018-03-22T11:26:10.358Z,40.80
2018-03-22T11:28:36.630Z,41.40
2018-03-22T11:31:04.225Z,40.60
2018-03-22T11:33:30.513Z,40.80
2018-03-22T11:35:56.769Z,42.30
2018-03-22T11:38:24.233Z,39.80
2018-03-22T11:40:51.226Z,37.60
2018-03-22T11:43:17.921Z,37.50
2018-03-22T11:45:45.297Z,36.90
2018-03-22T11:48:12.299Z,39.80
2018-03-22T11:50:38.538Z,39.90
2018-03-22T11:53:05.225Z,39.60
2018-03-22T11:55:32.251Z,38.70
2018-03-22T11:57:58.510Z,38.80
2018-03-22T12:00:25.832Z,39.00
2018-03-22T12:02:52.125Z,38.80
2018-03-22T12:05:18.949Z,39.90
2018-03-22T12:07:45.958Z,37.60
2018-03-22T12:10:12.214Z,37.60
2018-03-22T12:12:38.473Z,38.20
2018-03-22T12:15:06.330Z,37.50
2018-03-22T12:17:33.625Z,39.70
2018-03-22T12:20:00.287Z,39.70
2018-03-22T12:22:26.529Z,38.70
2018-03-22T12:24:52.791Z,38.30
2018-03-22T12:27:19.054Z,35.80
2018-03-22T12:29:46.033Z,38.50
2018-03-22T12:32:12.840Z,38.50
2018-03-22T12:34:39.846Z,37.10
2018-03-22T12:37:06.566Z,37.10
2018-03-22T12:39:32.814Z,35.50
2018-03-22T12:41:59.074Z,35.60
2018-03-22T12:44:25.938Z,36.30
2018-03-22T12:46:52.198Z,37.50
2018-03-22T12:49:19.184Z,37.50
2018-03-22T12:51:45.865Z,37.50
2018-03-22T12:54:12.117Z,39.40
2018-03-22T12:56:39.886Z,39.00
2018-03-22T12:59:06.953Z,39.30
2018-03-22T13:01:33.942Z,39.40
2018-03-22T13:04:00.512Z,39.40
2018-03-22T13:06:27.289Z,39.70
2018-03-22T13:08:54.294Z,39.50
2018-03-22T13:11:21.070Z,39.50
2018-03-22T13:13:48.641Z,39.00
2018-03-22T13:16:15.980Z,37.80
2018-03-22T13:18:42.293Z,37.60
2018-03-22T13:21:09.286Z,37.70
2018-03-22T13:23:36.547Z,39.10
2018-03-22T13:26:03.578Z,39.20
2018-03-22T13:28:29.958Z,39.20
2018-03-22T13:30:57.609Z,38.90
2018-03-22T13:33:24.994Z,38.30
2018-03-22T13:35:51.262Z,38.20
2018-03-22T13:38:18.052Z,38.90
2018-03-22T13:40:45.423Z,38.50
2018-03-22T13:43:12.857Z,38.40
2018-03-22T13:45:39.854Z,38.70
2018-03-22T13:48:06.113Z,38.60
2018-03-22T13:50:32.593Z,38.60
2018-03-22T13:53:00.019Z,37.80
2018-03-22T13:55:26.887Z,37.80
2018-03-22T13:57:53.742Z,37.90
2018-03-22T14:00:20.031Z,36.60
2018-03-22T14:02:47.114Z,37.10
2018-03-22T14:05:13.786Z,36.70
2018-03-22T14:07:40.793Z,37.90
2018-03-22T14:10:07.566Z,37.90
2018-03-22T14:12:33.826Z,38.20
2018-03-22T14:15:00.845Z,37.90
2018-03-22T14:17:27.888Z,38.10
2018-03-22T14:19:54.137Z,38.20
2018-03-22T14:22:20.496Z,38.30
2018-03-22T14:24:47.551Z,38.30
2018-03-22T14:27:14.563Z,37.70
2018-03-22T14:29:40.806Z,37.70
2018-03-22T14:32:07.425Z,37.40
2018-03-22T14:34:33.684Z,38.40
2018-03-22T14:36:59.934Z,37.70
2018-03-22T14:39:26.571Z,37.20
2018-03-22T14:41:52.817Z,37.10
2018-03-22T14:44:20.281Z,38.00
2018-03-22T14:46:47.333Z,36.90
2018-03-22T14:49:14.331Z,37.40
2018-03-22T14:51:41.142Z,37.40
2018-03-22T14:54:08.698Z,35.40
2018-03-22T14:56:36.278Z,35.50
2018-03-22T14:59:02.529Z,35.50
2018-03-22T15:01:28.824Z,36.70
2018-03-22T15:03:55.103Z,37.10
2018-03-22T15:06:21.818Z,37.00
2018-03-22T15:08:48.440Z,37.00
2018-03-22T15:11:14.688Z,36.30
2018-03-22T15:13:41.705Z,34.70
2018-03-22T15:16:08.270Z,34.70
2018-03-22T15:18:34.531Z,33.60
2018-03-22T15:21:01.614Z,34.90
2018-03-22T15:23:27.917Z,34.90
2018-03-22T15:25:54.910Z,35.70
2018-03-22T15:28:21.786Z,35.80
2018-03-22T15:30:48.153Z,35.10
2018-03-22T15:33:15.502Z,35.00
2018-03-22T15:35:43.080Z,35.90
2018-03-22T15:38:10.463Z,35.10
2018-03-22T15:40:36.721Z,35.10
2018-03-22T15:43:03.001Z,35.50
2018-03-22T15:45:30.665Z,34.80
2018-03-22T15:47:57.653Z,35.90
2018-03-22T15:50:24.354Z,35.90
2018-03-22T15:52:51.776Z,35.70
2018-03-22T15:55:18.582Z,34.30
2018-03-22T15:57:45.580Z,34.70
2018-03-22T16:00:12.441Z,34.70
2018-03-22T16:02:39.013Z,34.40
2018-03-22T16:05:06.576Z,35.70
2018-03-22T16:07:33.590Z,36.10
2018-03-22T16:09:59.865Z,36.10
2018-03-22T16:12:27.238Z,36.50
2018-03-22T16:14:53.566Z,36.50
2018-03-22T16:17:20.670Z,35.90
2018-03-22T16:19:46.934Z,35.90
2018-03-22T16:22:13.201Z,36.30
2018-03-22T16:24:39.462Z,36.40
2018-03-22T16:27:06.373Z,36.40
2018-03-22T16:29:33.374Z,37.10
2018-03-22T16:32:00.271Z,37.00
2018-03-22T16:34:27.846Z,37.30
2018-03-22T16:36:54.886Z,37.00
2018-03-22T16:39:22.345Z,37.20
2018-03-22T16:41:50.131Z,37.00
2018-03-22T16:44:17.563Z,37.60
2018-03-22T16:46:44.325Z,37.60
2018-03-22T16:49:11.686Z,37.70
2018-03-22T16:51:39.119Z,37.60
2018-03-22T16:54:06.853Z,38.00
2018-03-22T16:56:33.125Z,38.00
2018-03-22T16:58:59.500Z,38.30
2018-03-22T17:01:26.519Z,38.70
2018-03-22T17:03:53.386Z,38.70
2018-03-22T17:06:20.950Z,38.40
2018-03-22T17:08:47.941Z,39.00
2018-03-22T17:11:14.210Z,38.90
2018-03-22T17:13:40.899Z,38.80
2018-03-22T17:16:07.870Z,39.10
2018-03-22T17:18:34.118Z,39.00
2018-03-22T17:21:00.417Z,39.10
2018-03-22T17:23:27.415Z,39.70
2018-03-22T17:25:53.809Z,39.70
2018-03-22T17:28:20.638Z,40.00
2018-03-22T17:30:48.214Z,40.50
2018-03-22T17:33:15.623Z,41.00
2018-03-22T17:35:41.879Z,41.00
2018-03-22T17:38:08.671Z,41.40
2018-03-22T17:40:35.510Z,42.00
2018-03-22T17:43:02.342Z,42.20
2018-03-22T17:45:29.767Z,43.10
2018-03-22T17:47:56.027Z,43.00
2018-03-22T17:50:23.097Z,43.80
2018-03-22T17:52:50.764Z,44.10
2018-03-22T17:55:18.310Z,44.90
2018-03-22T17:57:44.640Z,44.90
2018-03-22T18:00:11.513Z,44.90
2018-03-22T18:02:38.543Z,45.70
2018-03-22T18:05:05.531Z,45.70
2018-03-22T18:07:32.291Z,47.40
2018-03-22T18:09:58.541Z,47.00
2018-03-22T18:12:24.830Z,47.30
2018-03-22T18:14:51.846Z,46.00
2018-03-22T18:17:18.105Z,45.90
2018-03-22T18:19:45.190Z,46.20
2018-03-22T18:22:11.445Z,45.70
2018-03-22T18:24:37.725Z,44.90
2018-03-22T18:27:03.969Z,44.10
2018-03-22T18:29:31.505Z,43.90
2018-03-22T18:31:58.161Z,43.90
2018-03-22T18:34:24.451Z,43.30
2018-03-22T18:36:50.705Z,43.30
2018-03-22T18:39:17.913Z,43.20
2018-03-22T18:41:44.945Z,42.90
2018-03-22T18:44:11.621Z,42.90
2018-03-22T18:46:37.861Z,43.20
2018-03-22T18:49:04.172Z,42.50
2018-03-22T18:51:31.502Z,43.00
2018-03-22T18:53:58.174Z,43.00
2018-03-22T18:56:25.177Z,43.00
2018-03-22T18:58:51.980Z,43.00
2018-03-22T19:01:18.978Z,43.40
2018-03-22T19:03:45.246Z,43.40
2018-03-22T19:06:12.006Z,43.70
2018-03-22T19:08:38.999Z,44.00
2018-03-22T19:11:06.026Z,43.90
2018-03-22T19:13:32.287Z,44.10
2018-03-22T19:15:59.305Z,43.90
2018-03-22T19:18:26.311Z,43.90
2018-03-22T19:20:52.561Z,43.90
2018-03-22T19:23:20.574Z,43.80
2018-03-22T19:25:46.832Z,43.80
2018-03-22T19:28:13.550Z,43.70
2018-03-22T19:30:40.538Z,43.70
2018-03-22T19:33:08.062Z,43.70
2018-03-22T19:35:35.626Z,43.50
2018-03-22T19:38:03.303Z,43.40
2018-03-22T19:40:30.015Z,43.40
2018-03-22T19:42:56.409Z,43.70
2018-03-22T19:45:23.174Z,44.10
2018-03-22T19:47:49.449Z,43.60
2018-03-22T19:50:17.207Z,43.70
2018-03-22T19:52:43.995Z,43.70
2018-03-22T19:55:11.632Z,43.50
2018-03-22T19:57:38.967Z,43.00
2018-03-22T20:00:05.985Z,43.10
2018-03-22T20:02:32.230Z,43.10
2018-03-22T20:04:59.226Z,43.10
2018-03-22T20:07:26.906Z,43.30
2018-03-22T20:09:53.886Z,43.70
2018-03-22T20:12:20.120Z,43.70
2018-03-22T20:14:46.926Z,43.80
2018-03-22T20:17:14.545Z,44.20
2018-03-22T20:19:41.433Z,44.20
2018-03-22T20:22:07.718Z,44.30
2018-03-22T20:24:34.529Z,44.50
2018-03-22T20:27:01.609Z,44.40
2018-03-22T20:29:27.865Z,44.40
2018-03-22T20:31:54.666Z,44.60
2018-03-22T20:34:21.668Z,46.50
2018-03-22T20:36:47.957Z,46.50
2018-03-22T20:39:16.058Z,47.00
2018-03-22T20:41:42.396Z,47.40
2018-03-22T20:44:09.310Z,48.10
2018-03-22T20:46:36.704Z,48.90
2018-03-22T20:49:03.241Z,49.00
2018-03-22T20:51:30.207Z,49.10
2018-03-22T20:53:58.677Z,50.60
2018-03-22T20:56:25.036Z,51.20
2018-03-22T20:58:51.753Z,52.30
2018-03-22T21:01:18.613Z,52.50
2018-03-22T21:03:44.912Z,53.60
2018-03-22T21:06:12.696Z,54.40
2018-03-22T21:08:40.108Z,54.90
2018-03-22T21:11:06.358Z,55.00
2018-03-22T21:13:34.094Z,57.30
2018-03-22T21:16:00.391Z,57.40
2018-03-22T21:18:28.249Z,61.00
2018-03-22T21:20:55.920Z,62.10
2018-03-22T21:23:23.393Z,60.40
2018-03-22T21:25:50.373Z,62.20
2018-03-22T21:28:16.651Z,62.10
2018-03-22T21:30:43.921Z,62.40
2018-03-22T21:33:11.564Z,61.70
2018-03-22T21:35:39.244Z,62.80
2018-03-22T21:38:06.446Z,62.60
2018-03-22T21:40:33.253Z,63.40
2018-03-22T21:42:59.505Z,62.60
2018-03-22T21:45:26.993Z,63.50
2018-03-22T21:47:53.257Z,63.60
2018-03-22T21:50:20.077Z,64.30
2018-03-22T21:52:47.097Z,63.10
2018-03-22T21:55:14.446Z,64.10
2018-03-22T21:57:40.700Z,64.40
2018-03-22T22:00:07.732Z,63.80
2018-03-22T22:02:34.382Z,63.50
2018-03-22T22:05:02.164Z,62.90
2018-03-22T22:07:29.097Z,62.80
2018-03-22T22:09:56.097Z,62.60
2018-03-22T22:12:23.110Z,63.20
2018-03-22T22:14:50.677Z,65.80
2018-03-22T22:17:17.677Z,66.20
2018-03-22T22:19:44.473Z,66.30
2018-03-22T22:22:11.949Z,65.80
2018-03-22T22:24:38.209Z,65.60
2018-03-22T22:27:04.503Z,68.80
2018-03-22T22:29:32.065Z,68.60
2018-03-22T22:31:59.057Z,68.70
2018-03-22T22:34:26.174Z,68.70
2018-03-22T22:36:53.168Z,70.20
2018-03-22T22:39:20.177Z,69.70
2018-03-22T22:41:47.191Z,68.90
2018-03-22T22:44:13.865Z,69.00
2018-03-22T22:46:40.137Z,69.30
2018-03-22T22:49:06.848Z,69.50
2018-03-22T22:51:34.630Z,72.40
2018-03-22T22:54:02.086Z,71.30
2018-03-22T22:56:29.082Z,71.00
2018-03-22T22:58:55.317Z,71.00
2018-03-22T23:01:21.581Z,68.80
2018-03-22T23:03:48.350Z,70.00
2018-03-22T23:06:15.926Z,68.90
2018-03-22T23:08:43.430Z,69.60
2018-03-22T23:11:09.713Z,69.60
2018-03-22T23:13:36.715Z,69.50
2018-03-22T23:16:03.022Z,69.50
2018-03-22T23:18:29.847Z,69.20
2018-03-22T23:20:57.214Z,67.60
2018-03-22T23:23:24.215Z,70.50
2018-03-22T23:25:50.491Z,70.50
2018-03-22T23:28:18.161Z,70.40
2018-03-22T23:30:45.681Z,69.30
2018-03-22T23:33:12.470Z,69.30
2018-03-22T23:35:39.479Z,68.90
2018-03-22T23:38:06.273Z,68.90
2018-03-22T23:40:33.711Z,68.20
2018-03-22T23:43:00.692Z,68.50
2018-03-22T23:45:28.206Z,67.30
2018-03-22T23:47:54.991Z,67.30
2018-03-22T23:50:21.962Z,68.60
2018-03-22T23:52:48.894Z,68.60
2018-03-22T23:55:17.187Z,69.60
2018-03-22T23:57:44.746Z,69.90
